createdAt,value
2016-12-28T00:00:25.752Z,23.97
2016-12-28T00:01:26.272Z,24.02
2016-12-28T00:02:26.340Z,23.97
2016-12-28T00:03:26.067Z,24.05
2016-12-28T00:04:25.680Z,24
2016-12-28T00:05:27.120Z,23.97
2016-12-28T00:06:26.321Z,24
2016-12-28T00:07:26.474Z,24.02
2016-12-28T00:08:26.020Z,24.02
2016-12-28T00:09:25.764Z,24.06
2016-12-28T00:10:26.084Z,24.05
2016-12-28T00:11:26.056Z,24.03
2016-12-28T00:12:26.468Z,23.95
2016-12-28T00:13:26.420Z,23.98
2016-12-28T00:14:25.803Z,23.97
2016-12-28T00:15:26.432Z,24
2016-12-28T00:16:27.078Z,23.97
2016-12-28T00:17:26.570Z,24.02
2016-12-28T00:18:26.410Z,23.98
2016-12-28T00:19:26.100Z,24
2016-12-28T00:20:27.272Z,23.94
2016-12-28T00:21:26.510Z,24.03
2016-12-28T00:22:26.432Z,24
2016-12-28T00:23:26.824Z,23.97
2016-12-28T00:24:26.234Z,23.94
2016-12-28T00:25:25.877Z,24
2016-12-28T00:26:26.461Z,23.97
2016-12-28T00:27:26.153Z,23.95
2016-12-28T00:28:25.902Z,23.94
2016-12-28T00:29:26.370Z,24
2016-12-28T00:30:26.303Z,23.91
2016-12-28T00:31:27.721Z,24
2016-12-28T00:32:25.877Z,23.98
2016-12-28T00:33:26.065Z,23.98
2016-12-28T00:34:25.940Z,23.93
2016-12-28T00:35:26.261Z,23.93
2016-12-28T00:36:26.364Z,23.9
2016-12-28T00:37:26.327Z,23.88
2016-12-28T00:38:26.608Z,23.9
2016-12-28T00:39:25.927Z,23.95
2016-12-28T00:40:26.343Z,23.9
2016-12-28T00:41:26.298Z,23.9
2016-12-28T00:42:27.670Z,23.87
2016-12-28T00:43:26.303Z,23.85
2016-12-28T00:44:26.007Z,23.91
2016-12-28T00:45:26.279Z,23.95
2016-12-28T00:46:26.654Z,23.93
2016-12-28T00:47:26.291Z,23.93
2016-12-28T00:48:26.661Z,23.9
2016-12-28T00:49:26.671Z,23.91
2016-12-28T00:50:26.625Z,23.88
2016-12-28T00:51:27.037Z,23.91
2016-12-28T00:52:26.042Z,23.88
2016-12-28T00:53:27.486Z,23.95
2016-12-28T00:54:26.650Z,24
2016-12-28T00:55:26.757Z,24.05
2016-12-28T00:56:26.399Z,23.93
2016-12-28T00:57:26.670Z,24.09
2016-12-28T00:58:26.414Z,24
2016-12-28T00:59:26.374Z,24
2016-12-28T01:00:26.430Z,24
2016-12-28T01:01:26.752Z,24.05
2016-12-28T01:02:27.421Z,24.03
2016-12-28T01:03:26.816Z,24
2016-12-28T01:04:26.756Z,24
2016-12-28T01:05:26.400Z,24.03
2016-12-28T01:06:26.108Z,24.05
2016-12-28T01:07:26.740Z,24.08
2016-12-28T01:08:26.484Z,24.12
2016-12-28T01:09:26.442Z,24.05
2016-12-28T01:10:26.763Z,24.05
2016-12-28T01:11:26.456Z,24.05
2016-12-28T01:12:26.514Z,24.1
2016-12-28T01:13:26.522Z,24.09
2016-12-28T01:14:26.216Z,24.13
2016-12-28T01:15:27.294Z,24.13
2016-12-28T01:16:26.855Z,24.09
2016-12-28T01:17:26.868Z,24.09
2016-12-28T01:18:26.818Z,24.09
2016-12-28T01:19:26.873Z,24.13
2016-12-28T01:20:26.937Z,24.09
2016-12-28T01:21:26.390Z,24.15
2016-12-28T01:22:26.221Z,24.18
2016-12-28T01:23:26.539Z,24.13
2016-12-28T01:24:26.545Z,24.21
2016-12-28T01:25:26.917Z,24.27
2016-12-28T01:26:27.098Z,24.22
2016-12-28T01:27:26.932Z,24.18
2016-12-28T01:28:26.575Z,24.22
2016-12-28T01:29:26.629Z,24.24
2016-12-28T01:30:26.901Z,24.22
2016-12-28T01:31:26.595Z,24.27
2016-12-28T01:32:26.653Z,24.16
2016-12-28T01:33:26.349Z,24.2
2016-12-28T01:34:26.355Z,24.22
2016-12-28T01:35:26.363Z,24.21
2016-12-28T01:36:26.992Z,24.24
2016-12-28T01:37:27.252Z,24.22
2016-12-28T01:38:26.957Z,24.2
2016-12-28T01:39:28.590Z,24.24
2016-12-28T01:40:26.759Z,24.18
2016-12-28T01:41:27.027Z,24.22
2016-12-28T01:42:26.985Z,24.22
2016-12-28T01:43:26.991Z,24.2
2016-12-28T01:44:26.690Z,24.2
2016-12-28T01:45:27.061Z,24.27
2016-12-28T01:46:27.060Z,24.22
2016-12-28T01:47:26.708Z,24.22
2016-12-28T01:48:26.764Z,24.16
2016-12-28T01:49:27.025Z,24.21
2016-12-28T01:50:26.834Z,24.22
2016-12-28T01:51:26.521Z,24.2
2016-12-28T01:52:27.256Z,24.18
2016-12-28T01:53:26.748Z,24.16
2016-12-28T01:54:26.756Z,24.15
2016-12-28T01:55:27.133Z,24.25
2016-12-28T01:56:26.467Z,24.13
2016-12-28T01:57:26.568Z,24.22
2016-12-28T01:58:26.844Z,24.25
2016-12-28T01:59:26.841Z,24.22
2016-12-28T02:00:27.114Z,24.21
2016-12-28T02:01:28.426Z,24.24
2016-12-28T02:02:26.503Z,24.15
2016-12-28T02:03:27.568Z,24.24
2016-12-28T02:04:27.190Z,24.2
2016-12-28T02:05:26.528Z,24.22
2016-12-28T02:06:26.889Z,24.18
2016-12-28T02:07:27.238Z,24.24
2016-12-28T02:08:26.593Z,24.27
2016-12-28T02:09:26.911Z,24.18
2016-12-28T02:10:26.918Z,24.22
2016-12-28T02:11:27.314Z,24.22
2016-12-28T02:12:27.784Z,24.18
2016-12-28T02:13:26.936Z,24.24
2016-12-28T02:14:27.100Z,24.2
2016-12-28T02:15:26.589Z,24.15
2016-12-28T02:16:27.015Z,24.18
2016-12-28T02:17:26.965Z,24.15
2016-12-28T02:18:27.266Z,24.21
2016-12-28T02:19:27.597Z,24.13
2016-12-28T02:20:27.256Z,24.16
2016-12-28T02:21:26.683Z,24.13
2016-12-28T02:22:27.370Z,24.22
2016-12-28T02:23:28.374Z,24.1
2016-12-28T02:24:27.066Z,24.18
2016-12-28T02:25:26.972Z,24.16
2016-12-28T02:26:26.979Z,24.13
2016-12-28T02:27:27.041Z,24.08
2016-12-28T02:28:26.786Z,24.03
2016-12-28T02:29:27.057Z,24.21
2016-12-28T02:30:27.056Z,24.25
2016-12-28T02:31:26.802Z,24.21
2016-12-28T02:32:27.321Z,24.2
2016-12-28T02:33:27.344Z,24.15
2016-12-28T02:34:27.827Z,24.16
2016-12-28T02:35:27.097Z,24.03
2016-12-28T02:36:27.034Z,24.06
2016-12-28T02:37:27.422Z,24.21
2016-12-28T02:38:27.114Z,24.16
2016-12-28T02:39:26.864Z,24.25
2016-12-28T02:40:27.178Z,24.16
2016-12-28T02:41:27.087Z,24.22
2016-12-28T02:42:26.778Z,24.21
2016-12-28T02:43:27.148Z,24.21
2016-12-28T02:44:26.918Z,24.18
2016-12-28T02:45:28.225Z,24.16
2016-12-28T02:46:27.432Z,24.24
2016-12-28T02:47:27.176Z,24.25
2016-12-28T02:48:27.185Z,24.16
2016-12-28T02:49:28.240Z,24.22
2016-12-28T02:50:26.882Z,24.13
2016-12-28T02:51:26.894Z,24.2
2016-12-28T02:52:27.526Z,24.21
2016-12-28T02:53:27.169Z,24.15
2016-12-28T02:54:27.488Z,24.15
2016-12-28T02:55:27.181Z,24.2
2016-12-28T02:56:26.903Z,24.13
2016-12-28T02:57:27.556Z,24.22
2016-12-28T02:58:27.301Z,24.24
2016-12-28T02:59:27.572Z,24.2
2016-12-28T03:00:28.681Z,24.2
2016-12-28T03:01:26.939Z,24.24
2016-12-28T03:02:27.278Z,24.22
2016-12-28T03:03:27.234Z,24.25
2016-12-28T03:04:27.607Z,24.24
2016-12-28T03:05:27.251Z,24.22
2016-12-28T03:06:27.625Z,24.25
2016-12-28T03:07:27.676Z,24.31
2016-12-28T03:08:27.271Z,24.28
2016-12-28T03:09:27.689Z,24.31
2016-12-28T03:10:27.389Z,24.27
2016-12-28T03:11:28.511Z,24.3
2016-12-28T03:12:27.607Z,24.24
2016-12-28T03:13:27.061Z,24.27
2016-12-28T03:14:27.047Z,24.31
2016-12-28T03:15:27.325Z,24.24
2016-12-28T03:16:27.324Z,24.22
2016-12-28T03:17:27.122Z,24.21
2016-12-28T03:18:27.126Z,24.2
2016-12-28T03:19:27.347Z,24.24
2016-12-28T03:20:27.408Z,24.22
2016-12-28T03:21:27.410Z,24.25
2016-12-28T03:22:28.626Z,24.22
2016-12-28T03:23:27.766Z,24.27
2016-12-28T03:24:27.483Z,24.31
2016-12-28T03:25:27.387Z,24.22
2016-12-28T03:26:27.758Z,24.2
2016-12-28T03:27:27.766Z,24.24
2016-12-28T03:28:27.411Z,24.25
2016-12-28T03:29:27.518Z,24.2
2016-12-28T03:30:27.418Z,24.18
2016-12-28T03:31:27.481Z,24.24
2016-12-28T03:32:27.738Z,24.2
2016-12-28T03:33:28.546Z,24.21
2016-12-28T03:34:27.504Z,24.25
2016-12-28T03:35:27.458Z,24.24
2016-12-28T03:36:27.830Z,24.28
2016-12-28T03:37:27.474Z,24.25
2016-12-28T03:38:27.841Z,24.18
2016-12-28T03:39:27.796Z,24.18
2016-12-28T03:40:27.910Z,24.12
2016-12-28T03:41:27.810Z,24.16
2016-12-28T03:42:27.555Z,24.2
2016-12-28T03:43:27.878Z,24.24
2016-12-28T03:44:28.587Z,24.22
2016-12-28T03:45:27.216Z,24.25
2016-12-28T03:46:27.536Z,24.24
2016-12-28T03:47:27.540Z,24.2
2016-12-28T03:48:27.912Z,24.09
2016-12-28T03:49:27.605Z,24.21
2016-12-28T03:50:27.563Z,24.13
2016-12-28T03:51:27.264Z,24.1
2016-12-28T03:52:27.576Z,24.2
2016-12-28T03:53:27.584Z,24.13
2016-12-28T03:54:27.641Z,24.05
2016-12-28T03:55:28.701Z,24.13
2016-12-28T03:56:27.606Z,24.13
2016-12-28T03:57:27.715Z,24.12
2016-12-28T03:58:27.773Z,24.15
2016-12-28T03:59:27.939Z,24.05
2016-12-28T04:00:27.684Z,24.16
2016-12-28T04:01:27.377Z,24.16
2016-12-28T04:02:27.649Z,24.1
2016-12-28T04:03:27.655Z,24.12
2016-12-28T04:04:27.402Z,24.2
2016-12-28T04:05:27.987Z,24.15
2016-12-28T04:06:28.824Z,24.16
2016-12-28T04:07:27.685Z,24.2
2016-12-28T04:08:27.427Z,24.05
2016-12-28T04:09:27.796Z,24.12
2016-12-28T04:10:27.447Z,24.03
2016-12-28T04:11:27.757Z,24.15
2016-12-28T04:12:27.458Z,24.12
2016-12-28T04:13:27.777Z,24.12
2016-12-28T04:14:28.045Z,24.12
2016-12-28T04:15:27.840Z,24.21
2016-12-28T04:16:27.795Z,24.18
2016-12-28T04:17:28.607Z,24.2
2016-12-28T04:18:28.075Z,24.22
2016-12-28T04:19:27.815Z,24.3
2016-12-28T04:20:28.089Z,24.24
2016-12-28T04:21:27.834Z,24.2
2016-12-28T04:22:27.477Z,24.21
2016-12-28T04:23:28.156Z,24.21
2016-12-28T04:24:27.801Z,24.21
2016-12-28T04:25:27.858Z,24.22
2016-12-28T04:26:28.127Z,24.21
2016-12-28T04:27:27.561Z,24.28
2016-12-28T04:28:28.881Z,24.2
2016-12-28T04:29:27.939Z,24.21
2016-12-28T04:30:28.205Z,24.25
2016-12-28T04:31:27.899Z,24.25
2016-12-28T04:32:29.226Z,24.31
2016-12-28T04:33:28.225Z,24.32
2016-12-28T04:34:27.561Z,24.34
2016-12-28T04:35:28.183Z,24.28
2016-12-28T04:36:27.937Z,24.27
2016-12-28T04:37:27.946Z,24.22
2016-12-28T04:38:27.953Z,24.27
2016-12-28T04:39:27.643Z,24.31
2016-12-28T04:40:28.330Z,24.31
2016-12-28T04:41:27.921Z,24.31
2016-12-28T04:42:27.978Z,24.28
2016-12-28T04:43:29.149Z,24.28
2016-12-28T04:44:28.045Z,24.32
2016-12-28T04:45:27.635Z,24.35
2016-12-28T04:46:28.318Z,24.24
2016-12-28T04:47:27.648Z,24.3
2016-12-28T04:48:28.286Z,24.2
2016-12-28T04:49:27.974Z,24.27
2016-12-28T04:50:27.704Z,24.32
2016-12-28T04:51:27.991Z,24.34
2016-12-28T04:52:27.688Z,24.31
2016-12-28T04:53:28.319Z,24.27
2016-12-28T04:54:28.776Z,24.31
2016-12-28T04:55:28.024Z,24.3
2016-12-28T04:56:28.081Z,24.27
2016-12-28T04:57:27.777Z,24.28
2016-12-28T04:58:27.729Z,24.31
2016-12-28T04:59:28.411Z,24.25
2016-12-28T05:00:27.745Z,24.34
2016-12-28T05:01:28.113Z,24.3
2016-12-28T05:02:28.167Z,24.31
2016-12-28T05:03:28.079Z,24.27
2016-12-28T05:04:28.085Z,24.37
2016-12-28T05:05:29.054Z,24.28
2016-12-28T05:06:28.198Z,24.37
2016-12-28T05:07:28.516Z,24.32
2016-12-28T05:08:28.110Z,24.34
2016-12-28T05:09:28.121Z,24.32
2016-12-28T05:10:27.865Z,24.28
2016-12-28T05:11:27.824Z,24.32
2016-12-28T05:12:28.503Z,24.28
2016-12-28T05:13:28.220Z,24.35
2016-12-28T05:14:27.841Z,24.32
2016-12-28T05:15:28.263Z,24.28
2016-12-28T05:16:29.273Z,24.31
2016-12-28T05:17:28.539Z,24.35
2016-12-28T05:18:28.547Z,24.28
2016-12-28T05:19:28.552Z,24.3
2016-12-28T05:20:28.201Z,24.32
2016-12-28T05:21:28.521Z,24.32
2016-12-28T05:22:28.224Z,24.37
2016-12-28T05:23:28.581Z,24.4
2016-12-28T05:24:27.965Z,24.31
2016-12-28T05:25:28.549Z,24.28
2016-12-28T05:26:27.978Z,24.32
2016-12-28T05:27:29.612Z,24.27
2016-12-28T05:28:28.042Z,24.37
2016-12-28T05:29:28.363Z,24.35
2016-12-28T05:30:28.634Z,24.34
2016-12-28T05:31:28.643Z,24.35
2016-12-28T05:32:27.972Z,24.28
2016-12-28T05:33:28.029Z,24.32
2016-12-28T05:34:28.403Z,24.27
2016-12-28T05:35:28.043Z,24.37
2016-12-28T05:36:28.020Z,24.28
2016-12-28T05:37:28.011Z,24.39
2016-12-28T05:38:28.063Z,24.32
2016-12-28T05:39:28.335Z,24.3
2016-12-28T05:40:28.716Z,24.21
2016-12-28T05:41:28.347Z,24.22
2016-12-28T05:42:28.359Z,24.22
2016-12-28T05:43:28.101Z,24.27
2016-12-28T05:44:28.372Z,24.28
2016-12-28T05:45:28.429Z,24.25
2016-12-28T05:46:28.750Z,24.25
2016-12-28T05:47:28.393Z,24.28
2016-12-28T05:48:28.502Z,24.24
2016-12-28T05:49:29.948Z,24.24
2016-12-28T05:50:28.727Z,24.31
2016-12-28T05:51:28.879Z,24.32
2016-12-28T05:52:28.742Z,24.35
2016-12-28T05:53:28.127Z,24.35
2016-12-28T05:54:28.136Z,24.35
2016-12-28T05:55:28.820Z,24.35
2016-12-28T05:56:28.824Z,24.34
2016-12-28T05:57:28.469Z,24.28
2016-12-28T05:58:28.213Z,24.3
2016-12-28T05:59:28.532Z,24.3
2016-12-28T06:00:29.930Z,24.24
2016-12-28T06:01:28.185Z,24.27
2016-12-28T06:02:28.905Z,24.24
2016-12-28T06:03:28.873Z,24.22
2016-12-28T06:04:28.892Z,24.28
2016-12-28T06:05:28.212Z,24.28
2016-12-28T06:06:28.893Z,24.34
2016-12-28T06:07:28.849Z,24.24
2016-12-28T06:08:28.601Z,24.28
2016-12-28T06:09:28.605Z,24.25
2016-12-28T06:10:28.563Z,24.31
2016-12-28T06:11:28.571Z,24.31
2016-12-28T06:12:28.577Z,24.27
2016-12-28T06:13:28.836Z,24.27
2016-12-28T06:14:28.902Z,24.22
2016-12-28T06:15:28.650Z,24.27
2016-12-28T06:16:28.704Z,24.2
2016-12-28T06:17:28.672Z,24.22
2016-12-28T06:18:28.670Z,24.22
2016-12-28T06:19:28.679Z,24.25
2016-12-28T06:20:28.733Z,24.31
2016-12-28T06:21:29.009Z,24.25
2016-12-28T06:22:28.966Z,24.21
2016-12-28T06:23:28.967Z,24.24
2016-12-28T06:24:29.028Z,24.24
2016-12-28T06:25:28.719Z,24.18
2016-12-28T06:26:30.222Z,24.2
2016-12-28T06:27:28.734Z,24.2
2016-12-28T06:28:28.379Z,24.21
2016-12-28T06:29:28.703Z,24.21
2016-12-28T06:30:28.806Z,24.2
2016-12-28T06:31:28.762Z,24.21
2016-12-28T06:32:28.408Z,24.22
2016-12-28T06:33:28.732Z,24.22
2016-12-28T06:34:29.099Z,24.16
2016-12-28T06:35:29.110Z,24.13
2016-12-28T06:36:29.112Z,24.21
2016-12-28T06:37:30.174Z,24.15
2016-12-28T06:38:29.080Z,24.15
2016-12-28T06:39:29.089Z,24.21
2016-12-28T06:40:28.826Z,24.16
2016-12-28T06:41:28.864Z,24.22
2016-12-28T06:42:28.792Z,24.21
2016-12-28T06:43:29.164Z,24.22
2016-12-28T06:44:29.121Z,24.22
2016-12-28T06:45:28.817Z,24.16
2016-12-28T06:46:28.710Z,24.1
2016-12-28T06:47:28.878Z,24.09
2016-12-28T06:48:30.055Z,24.22
2016-12-28T06:49:28.532Z,24.22
2016-12-28T06:50:28.849Z,24.18
2016-12-28T06:51:29.169Z,24.13
2016-12-28T06:52:28.965Z,24.05
2016-12-28T06:53:29.240Z,24.12
2016-12-28T06:54:29.200Z,24.08
2016-12-28T06:55:29.183Z,24.06
2016-12-28T06:56:28.632Z,24.15
2016-12-28T06:57:29.263Z,24.12
2016-12-28T06:58:28.907Z,24.16
2016-12-28T06:59:30.127Z,24.2
2016-12-28T07:00:28.917Z,24.1
2016-12-28T07:01:29.224Z,24.12
2016-12-28T07:02:28.933Z,24.05
2016-12-28T07:03:28.989Z,24.08
2016-12-28T07:04:29.101Z,24.13
2016-12-28T07:05:28.952Z,24.13
2016-12-28T07:06:28.698Z,24.12
2016-12-28T07:07:29.383Z,24.16
2016-12-28T07:08:28.975Z,24.12
2016-12-28T07:09:28.983Z,24.22
2016-12-28T07:10:30.292Z,24.21
2016-12-28T07:11:29.407Z,24.2
2016-12-28T07:12:29.009Z,24.2
2016-12-28T07:13:29.060Z,24.25
2016-12-28T07:14:29.328Z,24.22
2016-12-28T07:15:29.022Z,24.24
2016-12-28T07:16:29.344Z,24.13
2016-12-28T07:17:29.089Z,24.15
2016-12-28T07:18:28.783Z,24.13
2016-12-28T07:19:29.414Z,24.09
2016-12-28T07:20:28.849Z,24.13
2016-12-28T07:21:29.655Z,24.2
2016-12-28T07:22:29.071Z,24.09
2016-12-28T07:23:28.968Z,24.18
2016-12-28T07:24:29.395Z,24.16
2016-12-28T07:25:29.196Z,24.15
2016-12-28T07:26:29.098Z,24.18
2016-12-28T07:27:29.420Z,24.15
2016-12-28T07:28:31.760Z,24.15
2016-12-28T07:29:29.173Z,24.13
2016-12-28T07:30:29.129Z,24.25
2016-12-28T07:31:29.236Z,24.3
2016-12-28T07:32:29.940Z,24.47
2016-12-28T07:33:29.461Z,24.5
2016-12-28T07:34:29.255Z,24.62
2016-12-28T07:35:29.575Z,24.78
2016-12-28T07:36:29.168Z,24.93
2016-12-28T07:37:29.491Z,24.98
2016-12-28T07:38:29.179Z,25.09
2016-12-28T07:39:29.554Z,25.13
2016-12-28T07:40:29.246Z,25.23
2016-12-28T07:41:29.567Z,25.43
2016-12-28T07:42:29.573Z,25.46
2016-12-28T07:43:29.703Z,25.55
2016-12-28T07:44:29.223Z,25.51
2016-12-28T07:45:28.970Z,25.6
2016-12-28T07:46:29.239Z,25.79
2016-12-28T07:47:30.160Z,25.85
2016-12-28T07:48:29.620Z,25.91
2016-12-28T07:49:29.676Z,25.92
2016-12-28T07:50:29.279Z,26.01
2016-12-28T07:51:29.641Z,26.01
2016-12-28T07:52:29.333Z,25.97
2016-12-28T07:53:29.393Z,25.99
2016-12-28T07:54:29.722Z,26.15
2016-12-28T07:55:29.305Z,26.13
2016-12-28T07:56:29.313Z,26.25
2016-12-28T07:57:29.057Z,26.23
2016-12-28T07:58:30.036Z,26.15
2016-12-28T07:59:29.384Z,26.15
2016-12-28T08:00:29.028Z,26.13
2016-12-28T08:01:29.711Z,26.1
2016-12-28T08:02:29.352Z,26.13
2016-12-28T08:03:29.362Z,26.25
2016-12-28T08:04:29.417Z,26.3
2016-12-28T08:05:29.062Z,26.26
2016-12-28T08:06:29.793Z,26.32
2016-12-28T08:07:29.442Z,26.36
2016-12-28T08:08:29.446Z,26.37
2016-12-28T08:09:29.954Z,26.33
2016-12-28T08:10:29.463Z,26.29
2016-12-28T08:11:29.419Z,26.39
2016-12-28T08:12:29.474Z,26.36
2016-12-28T08:13:29.745Z,26.37
2016-12-28T08:14:29.494Z,26.45
2016-12-28T08:15:29.495Z,26.54
2016-12-28T08:16:29.820Z,26.54
2016-12-28T08:17:29.775Z,26.5
2016-12-28T08:18:30.987Z,26.51
2016-12-28T08:19:29.213Z,26.47
2016-12-28T08:20:29.835Z,26.51
2016-12-28T08:21:29.495Z,26.57
2016-12-28T08:22:29.286Z,26.6
2016-12-28T08:23:29.611Z,26.6
2016-12-28T08:24:29.202Z,26.62
2016-12-28T08:25:29.573Z,26.65
2016-12-28T08:26:29.532Z,26.6
2016-12-28T08:27:29.275Z,26.55
2016-12-28T08:28:29.596Z,26.54
2016-12-28T08:29:29.873Z,26.54
2016-12-28T08:30:29.973Z,26.57
2016-12-28T08:31:30.231Z,26.58
2016-12-28T08:32:29.315Z,26.52
2016-12-28T08:33:29.894Z,26.48
2016-12-28T08:34:29.591Z,26.57
2016-12-28T08:35:29.910Z,26.48
2016-12-28T08:36:29.914Z,26.54
2016-12-28T08:37:29.662Z,26.54
2016-12-28T08:38:29.940Z,26.65
2016-12-28T08:39:29.677Z,26.55
2016-12-28T08:40:30.904Z,26.52
2016-12-28T08:41:29.693Z,26.47
2016-12-28T08:42:30.096Z,26.47
2016-12-28T08:43:29.658Z,26.55
2016-12-28T08:44:31.003Z,26.6
2016-12-28T08:45:29.721Z,26.52
2016-12-28T08:46:29.681Z,26.7
2016-12-28T08:47:29.741Z,26.73
2016-12-28T08:48:29.744Z,26.85
2016-12-28T08:49:30.015Z,26.76
2016-12-28T08:50:29.809Z,26.55
2016-12-28T08:51:29.714Z,26.54
2016-12-28T08:52:30.038Z,26.62
2016-12-28T08:53:30.278Z,26.47
2016-12-28T08:54:30.054Z,26.76
2016-12-28T08:55:31.298Z,26.81
2016-12-28T08:56:29.855Z,26.84
2016-12-28T08:57:29.449Z,26.77
2016-12-28T08:58:29.821Z,26.67
2016-12-28T08:59:29.775Z,26.6
2016-12-28T09:00:30.099Z,26.65
2016-12-28T09:01:30.106Z,26.55
2016-12-28T09:02:30.114Z,26.51
2016-12-28T09:03:30.121Z,26.51
2016-12-28T09:04:30.174Z,26.57
2016-12-28T09:05:29.871Z,26.63
2016-12-28T09:06:30.834Z,26.65
2016-12-28T09:07:29.573Z,26.77
2016-12-28T09:08:29.943Z,26.75
2016-12-28T09:09:30.215Z,26.69
2016-12-28T09:10:29.862Z,26.65
2016-12-28T09:11:29.915Z,26.52
2016-12-28T09:12:29.873Z,26.54
2016-12-28T09:13:29.932Z,26.51
2016-12-28T09:14:30.258Z,26.62
2016-12-28T09:15:30.308Z,26.69
2016-12-28T09:16:29.910Z,26.81
2016-12-28T09:17:31.161Z,26.73
2016-12-28T09:18:29.922Z,26.7
2016-12-28T09:19:29.927Z,26.65
2016-12-28T09:20:29.668Z,26.62
2016-12-28T09:21:29.992Z,26.58
2016-12-28T09:22:30.262Z,26.66
2016-12-28T09:23:30.320Z,26.62
2016-12-28T09:24:30.264Z,26.7
2016-12-28T09:25:29.969Z,26.82
2016-12-28T09:26:29.725Z,26.87
2016-12-28T09:27:30.038Z,26.69
2016-12-28T09:28:30.535Z,26.69
2016-12-28T09:29:30.055Z,26.66
2016-12-28T09:30:30.058Z,26.63
2016-12-28T09:31:30.020Z,26.84
2016-12-28T09:32:29.809Z,26.73
2016-12-28T09:33:29.820Z,26.67
2016-12-28T09:34:30.353Z,26.54
2016-12-28T09:35:29.788Z,26.65
2016-12-28T09:36:30.056Z,26.69
2016-12-28T09:37:30.115Z,26.75
2016-12-28T09:38:30.070Z,26.75
2016-12-28T09:39:31.341Z,26.87
2016-12-28T09:40:30.398Z,26.97
2016-12-28T09:41:30.456Z,26.99
2016-12-28T09:42:30.201Z,26.95
2016-12-28T09:43:30.112Z,26.94
2016-12-28T09:44:30.116Z,26.87
2016-12-28T09:45:30.180Z,26.85
2016-12-28T09:46:29.822Z,26.88
2016-12-28T09:47:30.242Z,26.85
2016-12-28T09:48:30.149Z,26.87
2016-12-28T09:49:30.206Z,26.89
2016-12-28T09:50:31.984Z,26.85
2016-12-28T09:51:30.251Z,26.85
2016-12-28T09:52:30.239Z,26.84
2016-12-28T09:53:30.188Z,26.88
2016-12-28T09:54:30.561Z,26.72
2016-12-28T09:55:30.400Z,26.92
2016-12-28T09:56:29.948Z,27.03
2016-12-28T09:57:29.958Z,26.84
2016-12-28T09:58:30.540Z,27.03
2016-12-28T09:59:30.385Z,27.07
2016-12-28T10:00:29.984Z,27.02
2016-12-28T10:01:31.619Z,27.06
2016-12-28T10:02:30.354Z,27.07
2016-12-28T10:03:30.632Z,27.06
2016-12-28T10:04:30.676Z,27.1
2016-12-28T10:05:30.648Z,27.07
2016-12-28T10:06:30.380Z,27.04
2016-12-28T10:07:30.668Z,27.07
2016-12-28T10:08:32.333Z,27
2016-12-28T10:09:30.427Z,27.09
2016-12-28T10:10:30.520Z,27.03
2016-12-28T10:11:30.477Z,27.09
2016-12-28T10:12:30.340Z,27.03
2016-12-28T10:13:30.521Z,27.02
2016-12-28T10:14:30.459Z,26.97
2016-12-28T10:15:31.389Z,26.95
2016-12-28T10:16:30.476Z,27.04
2016-12-28T10:17:32.189Z,27.06
2016-12-28T10:18:30.753Z,27.18
2016-12-28T10:19:30.450Z,27.07
2016-12-28T10:20:30.774Z,27.17
2016-12-28T10:21:30.417Z,27.13
2016-12-28T10:22:30.814Z,27.03
2016-12-28T10:23:30.743Z,27.03
2016-12-28T10:24:31.802Z,27.1
2016-12-28T10:25:30.835Z,26.97
2016-12-28T10:26:32.249Z,27.06
2016-12-28T10:27:30.827Z,27.04
2016-12-28T10:28:30.784Z,27.02
2016-12-28T10:29:30.863Z,27.1
2016-12-28T10:30:30.539Z,27.18
2016-12-28T10:31:30.265Z,27.09
2016-12-28T10:32:30.552Z,27.12
2016-12-28T10:33:32.936Z,27.03
2016-12-28T10:34:30.597Z,27.09
2016-12-28T10:35:30.584Z,27.19
2016-12-28T10:36:30.584Z,27.09
2016-12-28T10:37:30.228Z,27.09
2016-12-28T10:38:30.981Z,27.07
2016-12-28T10:39:30.668Z,27.19
2016-12-28T10:40:30.759Z,27.09
2016-12-28T10:41:30.901Z,27.13
2016-12-28T10:42:30.911Z,27.12
2016-12-28T10:43:30.304Z,27.06
2016-12-28T10:44:30.401Z,27.09
2016-12-28T10:45:30.723Z,27
2016-12-28T10:46:30.307Z,26.97
2016-12-28T10:47:30.346Z,26.97
2016-12-28T10:48:30.998Z,27.07
2016-12-28T10:49:31.366Z,26.94
2016-12-28T10:50:31.121Z,26.94
2016-12-28T10:51:30.681Z,27.04
2016-12-28T10:52:30.978Z,27.12
2016-12-28T10:53:30.993Z,27.13
2016-12-28T10:54:30.796Z,27.02
2016-12-28T10:55:31.105Z,26.92
2016-12-28T10:56:31.123Z,26.88
2016-12-28T10:57:31.164Z,26.88
2016-12-28T10:58:31.031Z,26.84
2016-12-28T10:59:31.126Z,26.7
2016-12-28T11:00:30.941Z,26.8
2016-12-28T11:01:30.789Z,26.8
2016-12-28T11:02:30.787Z,26.82
2016-12-28T11:03:30.853Z,26.81
2016-12-28T11:04:30.892Z,26.65
2016-12-28T11:05:31.281Z,26.73
2016-12-28T11:06:30.948Z,26.7
2016-12-28T11:07:31.188Z,26.69
2016-12-28T11:08:30.755Z,26.55
2016-12-28T11:09:31.185Z,26.5
2016-12-28T11:10:31.408Z,26.55
2016-12-28T11:11:30.580Z,26.52
2016-12-28T11:12:30.913Z,26.6
2016-12-28T11:13:31.268Z,26.54
2016-12-28T11:14:31.207Z,26.58
2016-12-28T11:15:31.010Z,26.72
2016-12-28T11:16:30.905Z,26.82
2016-12-28T11:17:31.041Z,26.81
2016-12-28T11:18:30.898Z,26.69
2016-12-28T11:19:31.043Z,26.73
2016-12-28T11:20:31.129Z,26.66
2016-12-28T11:21:31.054Z,26.82
2016-12-28T11:22:30.911Z,26.72
2016-12-28T11:23:31.335Z,26.87
2016-12-28T11:24:31.393Z,26.97
2016-12-28T11:25:31.074Z,26.99
2016-12-28T11:26:33.055Z,26.91
2016-12-28T11:27:31.282Z,26.82
2016-12-28T11:28:31.408Z,26.85
2016-12-28T11:29:31.390Z,26.85
2016-12-28T11:30:31.510Z,27.02
2016-12-28T11:31:30.772Z,27.04
2016-12-28T11:32:31.552Z,27.03
2016-12-28T11:33:31.482Z,26.87
2016-12-28T11:34:31.198Z,26.95
2016-12-28T11:35:31.117Z,26.89
2016-12-28T11:36:31.132Z,26.84
2016-12-28T11:37:31.473Z,26.87
2016-12-28T11:38:31.542Z,27.02
2016-12-28T11:39:31.048Z,26.91
2016-12-28T11:40:31.996Z,26.85
2016-12-28T11:41:31.202Z,26.97
2016-12-28T11:42:31.272Z,27.09
2016-12-28T11:43:30.813Z,27.12
2016-12-28T11:44:31.305Z,27.09
2016-12-28T11:45:31.369Z,27.09
2016-12-28T11:46:31.237Z,27.12
2016-12-28T11:47:31.595Z,27.12
2016-12-28T11:48:31.269Z,27.12
2016-12-28T11:49:31.354Z,26.99
2016-12-28T11:50:31.272Z,27.03
2016-12-28T11:51:31.295Z,27.07
2016-12-28T11:52:31.284Z,27.03
2016-12-28T11:53:31.327Z,27.07
2016-12-28T11:54:31.494Z,27
2016-12-28T11:55:31.699Z,27.03
2016-12-28T11:56:30.965Z,27.04
2016-12-28T11:57:31.881Z,27.04
2016-12-28T11:58:32.195Z,27.12
2016-12-28T11:59:31.998Z,27.02
2016-12-28T12:00:30.971Z,26.95
2016-12-28T12:01:31.108Z,26.97
2016-12-28T12:02:31.591Z,26.99
2016-12-28T12:03:31.743Z,27.06
2016-12-28T12:04:31.930Z,27.04
2016-12-28T12:05:31.053Z,27.14
2016-12-28T12:06:31.589Z,27.1
2016-12-28T12:07:31.550Z,27.07
2016-12-28T12:08:31.823Z,27.06
2016-12-28T12:09:31.587Z,27.02
2016-12-28T12:10:31.570Z,27.09
2016-12-28T12:11:32.039Z,26.99
2016-12-28T12:12:31.514Z,26.88
2016-12-28T12:13:31.529Z,27.04
2016-12-28T12:14:31.138Z,27.06
2016-12-28T12:15:31.471Z,27.07
2016-12-28T12:16:31.596Z,27.04
2016-12-28T12:17:31.985Z,27.12
2016-12-28T12:18:31.678Z,27.09
2016-12-28T12:19:32.021Z,27.06
2016-12-28T12:20:31.557Z,27.07
2016-12-28T12:21:31.735Z,27.14
2016-12-28T12:22:32.117Z,27.17
2016-12-28T12:23:31.699Z,27.09
2016-12-28T12:24:31.261Z,27.12
2016-12-28T12:25:31.861Z,27.1
2016-12-28T12:26:31.647Z,27.19
2016-12-28T12:27:31.614Z,27.19
2016-12-28T12:28:31.665Z,27.12
2016-12-28T12:29:32.069Z,27.1
2016-12-28T12:30:31.813Z,27.1
2016-12-28T12:31:32.089Z,26.97
2016-12-28T12:32:31.235Z,26.88
2016-12-28T12:33:31.386Z,26.82
2016-12-28T12:34:31.646Z,26.82
2016-12-28T12:35:31.781Z,26.89
2016-12-28T12:36:32.168Z,27.02
2016-12-28T12:37:32.786Z,27.12
2016-12-28T12:38:31.400Z,27.03
2016-12-28T12:39:31.783Z,26.99
2016-12-28T12:40:31.782Z,26.91
2016-12-28T12:41:32.291Z,26.92
2016-12-28T12:42:32.642Z,26.85
2016-12-28T12:43:32.049Z,26.95
2016-12-28T12:44:31.838Z,27
2016-12-28T12:45:32.310Z,26.91
2016-12-28T12:46:32.255Z,27
2016-12-28T12:47:32.616Z,26.89
2016-12-28T12:48:32.308Z,26.88
2016-12-28T12:49:32.262Z,26.99
2016-12-28T12:50:32.295Z,26.95
2016-12-28T12:51:32.289Z,26.99
2016-12-28T12:52:32.432Z,27.09
2016-12-28T12:53:32.349Z,26.99
2016-12-28T12:54:31.719Z,26.99
2016-12-28T12:55:31.456Z,27.02
2016-12-28T12:56:31.488Z,26.99
2016-12-28T12:57:32.493Z,26.95